sensor_id;sensor_type;location;lat;lon;timestamp;P1;durP1;ratioP1;P2;durP2;ratioP2
75651;SDS011;64248;43.602;39.724;2022-12-11T00:00:32;7.53;;;2.65;;
75651;SDS011;64248;43.602;39.724;2022-12-11T00:02:58;5.88;;;2.50;;
75651;SDS011;64248;43.602;39.724;2022-12-11T00:05:24;7.13;;;3.15;;
75651;SDS011;64248;43.602;39.724;2022-12-11T00:07:50;7.13;;;2.92;;
75651;SDS011;64248;43.602;39.724;2022-12-11T00:10:16;5.93;;;3.15;;
75651;SDS011;64248;43.602;39.724;2022-12-11T00:12:42;9.77;;;3.45;;
75651;SDS011;64248;43.602;39.724;2022-12-11T00:15:08;11.27;;;5.22;;
75651;SDS011;64248;43.602;39.724;2022-12-11T00:17:34;7.32;;;3.50;;
75651;SDS011;64248;43.602;39.724;2022-12-11T00:20:00;6.65;;;3.40;;
75651;SDS011;64248;43.602;39.724;2022-12-11T00:22:28;4.82;;;2.42;;
75651;SDS011;64248;43.602;39.724;2022-12-11T00:24:54;7.10;;;3.03;;
75651;SDS011;64248;43.602;39.724;2022-12-11T00:27:20;5.85;;;2.80;;
75651;SDS011;64248;43.602;39.724;2022-12-11T00:29:48;6.47;;;2.83;;
75651;SDS011;64248;43.602;39.724;2022-12-11T00:32:14;5.15;;;2.28;;
75651;SDS011;64248;43.602;39.724;2022-12-11T00:34:40;6.72;;;2.60;;
75651;SDS011;64248;43.602;39.724;2022-12-11T00:37:06;8.57;;;2.88;;
75651;SDS011;64248;43.602;39.724;2022-12-11T00:39:32;8.18;;;2.30;;
75651;SDS011;64248;43.602;39.724;2022-12-11T00:41:58;6.57;;;2.78;;
75651;SDS011;64248;43.602;39.724;2022-12-11T00:44:24;6.70;;;3.08;;
75651;SDS011;64248;43.602;39.724;2022-12-11T00:46:50;4.82;;;2.80;;
75651;SDS011;64248;43.602;39.724;2022-12-11T00:49:16;5.85;;;2.15;;
75651;SDS011;64248;43.602;39.724;2022-12-11T00:51:41;6.68;;;2.50;;
75651;SDS011;64248;43.602;39.724;2022-12-11T00:54:07;6.28;;;2.72;;
75651;SDS011;64248;43.602;39.724;2022-12-11T00:56:33;6.85;;;3.25;;
75651;SDS011;64248;43.602;39.724;2022-12-11T00:58:59;6.13;;;2.95;;
75651;SDS011;64248;43.602;39.724;2022-12-11T01:01:25;5.05;;;2.85;;
75651;SDS011;64248;43.602;39.724;2022-12-11T01:03:52;5.47;;;2.55;;
75651;SDS011;64248;43.602;39.724;2022-12-11T01:06:19;6.15;;;2.63;;
75651;SDS011;64248;43.602;39.724;2022-12-11T01:08:47;4.70;;;2.40;;
75651;SDS011;64248;43.602;39.724;2022-12-11T01:11:33;7.40;;;2.55;;
75651;SDS011;64248;43.602;39.724;2022-12-11T01:13:59;5.90;;;2.30;;
75651;SDS011;64248;43.602;39.724;2022-12-11T01:16:25;6.88;;;3.25;;
75651;SDS011;64248;43.602;39.724;2022-12-11T01:18:51;6.22;;;2.65;;
75651;SDS011;64248;43.602;39.724;2022-12-11T01:21:17;5.72;;;2.53;;
75651;SDS011;64248;43.602;39.724;2022-12-11T01:23:43;6.10;;;2.97;;
75651;SDS011;64248;43.602;39.724;2022-12-11T01:26:11;5.15;;;2.47;;
75651;SDS011;64248;43.602;39.724;2022-12-11T01:28:38;7.38;;;2.50;;
75651;SDS011;64248;43.602;39.724;2022-12-11T01:31:08;4.53;;;2.13;;
75651;SDS011;64248;43.602;39.724;2022-12-11T01:33:36;6.30;;;2.53;;
75651;SDS011;64248;43.602;39.724;2022-12-11T01:36:35;6.45;;;2.47;;
75651;SDS011;64248;43.602;39.724;2022-12-11T01:38:55;6.10;;;2.50;;
75651;SDS011;64248;43.602;39.724;2022-12-11T01:41:20;6.82;;;2.50;;
75651;SDS011;64248;43.602;39.724;2022-12-11T01:44:00;5.57;;;2.25;;
75651;SDS011;64248;43.602;39.724;2022-12-11T01:46:29;5.05;;;1.90;;
75651;SDS011;64248;43.602;39.724;2022-12-11T01:48:56;5.55;;;2.08;;
75651;SDS011;64248;43.602;39.724;2022-12-11T01:51:23;6.03;;;2.85;;
75651;SDS011;64248;43.602;39.724;2022-12-11T01:53:52;6.50;;;2.63;;
75651;SDS011;64248;43.602;39.724;2022-12-11T01:56:23;7.13;;;2.25;;
75651;SDS011;64248;43.602;39.724;2022-12-11T01:58:51;5.20;;;1.90;;
75651;SDS011;64248;43.602;39.724;2022-12-11T02:04:16;7.32;;;2.63;;
75651;SDS011;64248;43.602;39.724;2022-12-11T02:06:45;6.60;;;1.90;;
75651;SDS011;64248;43.602;39.724;2022-12-11T02:09:13;3.42;;;1.50;;
75651;SDS011;64248;43.602;39.724;2022-12-11T02:11:46;4.18;;;2.10;;
75651;SDS011;64248;43.602;39.724;2022-12-11T02:14:31;6.22;;;2.42;;
75651;SDS011;64248;43.602;39.724;2022-12-11T02:19:54;5.45;;;2.33;;
75651;SDS011;64248;43.602;39.724;2022-12-11T02:25:15;4.38;;;1.80;;
75651;SDS011;64248;43.602;39.724;2022-12-11T02:27:47;3.45;;;1.70;;
75651;SDS011;64248;43.602;39.724;2022-12-11T02:30:21;6.25;;;2.20;;
75651;SDS011;64248;43.602;39.724;2022-12-11T02:32:52;4.53;;;1.45;;
75651;SDS011;64248;43.602;39.724;2022-12-11T02:38:02;5.57;;;2.05;;
75651;SDS011;64248;43.602;39.724;2022-12-11T02:40:33;5.30;;;1.65;;
75651;SDS011;64248;43.602;39.724;2022-12-11T02:43:02;5.20;;;2.08;;
75651;SDS011;64248;43.602;39.724;2022-12-11T02:45:31;4.10;;;1.80;;
75651;SDS011;64248;43.602;39.724;2022-12-11T02:47:58;7.72;;;2.08;;
75651;SDS011;64248;43.602;39.724;2022-12-11T02:50:27;5.15;;;1.60;;
75651;SDS011;64248;43.602;39.724;2022-12-11T02:52:54;3.38;;;1.63;;
75651;SDS011;64248;43.602;39.724;2022-12-11T02:55:21;6.40;;;1.92;;
75651;SDS011;64248;43.602;39.724;2022-12-11T02:57:50;4.18;;;1.75;;
75651;SDS011;64248;43.602;39.724;2022-12-11T03:00:37;3.92;;;1.50;;
75651;SDS011;64248;43.602;39.724;2022-12-11T03:03:03;4.07;;;1.75;;
75651;SDS011;64248;43.602;39.724;2022-12-11T03:05:29;6.05;;;2.03;;
75651;SDS011;64248;43.602;39.724;2022-12-11T03:07:56;5.07;;;2.10;;
75651;SDS011;64248;43.602;39.724;2022-12-11T03:10:22;7.65;;;2.30;;
75651;SDS011;64248;43.602;39.724;2022-12-11T03:12:49;5.47;;;1.70;;
75651;SDS011;64248;43.602;39.724;2022-12-11T03:15:19;5.82;;;1.90;;
75651;SDS011;64248;43.602;39.724;2022-12-11T03:18:05;4.07;;;1.80;;
75651;SDS011;64248;43.602;39.724;2022-12-11T03:20:45;5.22;;;2.00;;
75651;SDS011;64248;43.602;39.724;2022-12-11T03:28:20;4.65;;;1.65;;
75651;SDS011;64248;43.602;39.724;2022-12-11T03:30:53;4.88;;;2.00;;
75651;SDS011;64248;43.602;39.724;2022-12-11T03:33:25;4.88;;;2.30;;
75651;SDS011;64248;43.602;39.724;2022-12-11T03:35:55;4.88;;;1.55;;
75651;SDS011;64248;43.602;39.724;2022-12-11T03:38:36;6.55;;;2.47;;
75651;SDS011;64248;43.602;39.724;2022-12-11T03:41:08;3.33;;;1.42;;
75651;SDS011;64248;43.602;39.724;2022-12-11T03:43:36;4.65;;;2.40;;
75651;SDS011;64248;43.602;39.724;2022-12-11T03:46:05;5.97;;;2.15;;
75651;SDS011;64248;43.602;39.724;2022-12-11T03:48:34;4.28;;;1.73;;
75651;SDS011;64248;43.602;39.724;2022-12-11T03:51:05;6.38;;;2.15;;
75651;SDS011;64248;43.602;39.724;2022-12-11T03:53:32;4.45;;;1.63;;
75651;SDS011;64248;43.602;39.724;2022-12-11T03:55:59;4.72;;;2.10;;
75651;SDS011;64248;43.602;39.724;2022-12-11T03:58:28;5.35;;;1.83;;
75651;SDS011;64248;43.602;39.724;2022-12-11T04:00:54;7.20;;;2.00;;
75651;SDS011;64248;43.602;39.724;2022-12-11T04:03:20;3.60;;;1.60;;
75651;SDS011;64248;43.602;39.724;2022-12-11T04:05:50;5.28;;;2.33;;
75651;SDS011;64248;43.602;39.724;2022-12-11T04:08:18;6.80;;;2.28;;
75651;SDS011;64248;43.602;39.724;2022-12-11T04:10:45;6.72;;;1.88;;
75651;SDS011;64248;43.602;39.724;2022-12-11T04:13:12;4.10;;;1.42;;
75651;SDS011;64248;43.602;39.724;2022-12-11T04:15:38;5.30;;;2.00;;
75651;SDS011;64248;43.602;39.724;2022-12-11T04:18:05;4.30;;;1.83;;
75651;SDS011;64248;43.602;39.724;2022-12-11T04:20:53;4.32;;;2.10;;
75651;SDS011;64248;43.602;39.724;2022-12-11T04:23:59;6.30;;;2.63;;
75651;SDS011;64248;43.602;39.724;2022-12-11T04:26:40;5.60;;;2.65;;
75651;SDS011;64248;43.602;39.724;2022-12-11T04:29:07;6.95;;;1.90;;
75651;SDS011;64248;43.602;39.724;2022-12-11T04:31:33;5.22;;;2.15;;
75651;SDS011;64248;43.602;39.724;2022-12-11T04:33:58;4.75;;;2.17;;
75651;SDS011;64248;43.602;39.724;2022-12-11T04:36:24;8.10;;;2.50;;
75651;SDS011;64248;43.602;39.724;2022-12-11T04:38:50;10.90;;;2.58;;
75651;SDS011;64248;43.602;39.724;2022-12-11T04:41:16;11.60;;;2.78;;
75651;SDS011;64248;43.602;39.724;2022-12-11T04:43:43;12.77;;;2.20;;
75651;SDS011;64248;43.602;39.724;2022-12-11T04:46:19;5.93;;;2.25;;
75651;SDS011;64248;43.602;39.724;2022-12-11T04:48:46;6.63;;;1.98;;
75651;SDS011;64248;43.602;39.724;2022-12-11T04:51:12;6.85;;;2.13;;
75651;SDS011;64248;43.602;39.724;2022-12-11T04:53:38;8.35;;;2.42;;
75651;SDS011;64248;43.602;39.724;2022-12-11T04:56:08;7.75;;;1.92;;
75651;SDS011;64248;43.602;39.724;2022-12-11T04:58:36;4.30;;;1.65;;
75651;SDS011;64248;43.602;39.724;2022-12-11T05:03:58;9.13;;;1.92;;
75651;SDS011;64248;43.602;39.724;2022-12-11T05:06:24;4.88;;;2.15;;
75651;SDS011;64248;43.602;39.724;2022-12-11T05:08:50;5.45;;;1.70;;
75651;SDS011;64248;43.602;39.724;2022-12-11T05:11:16;5.35;;;2.00;;
75651;SDS011;64248;43.602;39.724;2022-12-11T05:13:42;4.03;;;1.98;;
75651;SDS011;64248;43.602;39.724;2022-12-11T05:16:09;6.13;;;1.83;;
75651;SDS011;64248;43.602;39.724;2022-12-11T05:18:37;3.75;;;2.35;;
75651;SDS011;64248;43.602;39.724;2022-12-11T05:21:05;8.32;;;2.00;;
75651;SDS011;64248;43.602;39.724;2022-12-11T05:23:33;4.28;;;1.83;;
75651;SDS011;64248;43.602;39.724;2022-12-11T05:26:01;9.57;;;2.20;;
75651;SDS011;64248;43.602;39.724;2022-12-11T05:28:29;6.68;;;2.80;;
75651;SDS011;64248;43.602;39.724;2022-12-11T05:31:01;5.72;;;2.85;;
75651;SDS011;64248;43.602;39.724;2022-12-11T05:33:32;8.30;;;2.97;;
75651;SDS011;64248;43.602;39.724;2022-12-11T05:35:58;8.13;;;2.58;;
75651;SDS011;64248;43.602;39.724;2022-12-11T05:38:25;8.50;;;3.03;;
75651;SDS011;64248;43.602;39.724;2022-12-11T05:40:55;5.82;;;2.83;;
75651;SDS011;64248;43.602;39.724;2022-12-11T05:43:22;6.85;;;2.63;;
75651;SDS011;64248;43.602;39.724;2022-12-11T05:45:48;5.18;;;2.22;;
75651;SDS011;64248;43.602;39.724;2022-12-11T05:48:14;7.95;;;2.95;;
75651;SDS011;64248;43.602;39.724;2022-12-11T05:50:40;8.10;;;2.47;;
75651;SDS011;64248;43.602;39.724;2022-12-11T05:53:06;10.43;;;2.80;;
75651;SDS011;64248;43.602;39.724;2022-12-11T05:55:35;8.18;;;2.65;;
75651;SDS011;64248;43.602;39.724;2022-12-11T05:58:00;6.00;;;2.53;;
75651;SDS011;64248;43.602;39.724;2022-12-11T06:00:26;5.10;;;2.38;;
75651;SDS011;64248;43.602;39.724;2022-12-11T06:02:53;6.60;;;2.33;;
75651;SDS011;64248;43.602;39.724;2022-12-11T06:05:18;4.28;;;2.17;;
75651;SDS011;64248;43.602;39.724;2022-12-11T06:07:44;4.97;;;2.17;;
75651;SDS011;64248;43.602;39.724;2022-12-11T06:10:10;4.90;;;2.38;;
75651;SDS011;64248;43.602;39.724;2022-12-11T06:12:36;8.05;;;2.70;;
75651;SDS011;64248;43.602;39.724;2022-12-11T06:15:02;6.88;;;2.45;;
75651;SDS011;64248;43.602;39.724;2022-12-11T06:17:29;5.10;;;1.60;;
75651;SDS011;64248;43.602;39.724;2022-12-11T06:19:55;6.00;;;2.38;;
75651;SDS011;64248;43.602;39.724;2022-12-11T06:22:21;4.88;;;1.23;;
75651;SDS011;64248;43.602;39.724;2022-12-11T06:24:47;8.55;;;1.80;;
75651;SDS011;64248;43.602;39.724;2022-12-11T06:27:13;4.68;;;2.83;;
75651;SDS011;64248;43.602;39.724;2022-12-11T06:29:39;4.00;;;1.65;;
75651;SDS011;64248;43.602;39.724;2022-12-11T06:32:05;6.85;;;2.35;;
75651;SDS011;64248;43.602;39.724;2022-12-11T06:34:31;6.13;;;2.03;;
75651;SDS011;64248;43.602;39.724;2022-12-11T06:36:57;4.75;;;1.77;;
75651;SDS011;64248;43.602;39.724;2022-12-11T06:39:23;5.07;;;2.17;;
75651;SDS011;64248;43.602;39.724;2022-12-11T06:41:49;6.93;;;2.53;;
75651;SDS011;64248;43.602;39.724;2022-12-11T06:44:14;6.78;;;2.50;;
75651;SDS011;64248;43.602;39.724;2022-12-11T06:46:40;4.53;;;2.28;;
75651;SDS011;64248;43.602;39.724;2022-12-11T06:49:06;6.15;;;2.20;;
75651;SDS011;64248;43.602;39.724;2022-12-11T06:51:32;6.13;;;2.33;;
75651;SDS011;64248;43.602;39.724;2022-12-11T06:53:58;6.85;;;3.50;;
75651;SDS011;64248;43.602;39.724;2022-12-11T06:56:24;5.78;;;3.08;;
75651;SDS011;64248;43.602;39.724;2022-12-11T06:58:50;10.25;;;3.08;;
75651;SDS011;64248;43.602;39.724;2022-12-11T07:01:21;7.40;;;3.35;;
75651;SDS011;64248;43.602;39.724;2022-12-11T07:03:50;12.15;;;3.97;;
75651;SDS011;64248;43.602;39.724;2022-12-11T07:06:17;9.88;;;3.85;;
75651;SDS011;64248;43.602;39.724;2022-12-11T07:08:43;12.10;;;3.65;;
75651;SDS011;64248;43.602;39.724;2022-12-11T07:11:11;13.00;;;3.85;;
75651;SDS011;64248;43.602;39.724;2022-12-11T07:13:38;9.90;;;3.80;;
75651;SDS011;64248;43.602;39.724;2022-12-11T07:16:06;9.70;;;4.07;;
75651;SDS011;64248;43.602;39.724;2022-12-11T07:18:39;12.02;;;3.03;;
75651;SDS011;64248;43.602;39.724;2022-12-11T07:21:07;11.18;;;3.97;;
75651;SDS011;64248;43.602;39.724;2022-12-11T07:23:36;13.45;;;5.18;;
75651;SDS011;64248;43.602;39.724;2022-12-11T07:26:05;13.40;;;3.90;;
75651;SDS011;64248;43.602;39.724;2022-12-11T07:28:36;9.30;;;3.97;;
75651;SDS011;64248;43.602;39.724;2022-12-11T07:31:06;16.55;;;4.47;;
75651;SDS011;64248;43.602;39.724;2022-12-11T07:33:40;12.70;;;4.45;;
75651;SDS011;64248;43.602;39.724;2022-12-11T07:36:07;11.80;;;3.13;;
75651;SDS011;64248;43.602;39.724;2022-12-11T07:38:34;19.58;;;5.57;;
75651;SDS011;64248;43.602;39.724;2022-12-11T07:41:00;8.88;;;4.05;;
75651;SDS011;64248;43.602;39.724;2022-12-11T07:43:30;9.80;;;3.22;;
75651;SDS011;64248;43.602;39.724;2022-12-11T07:46:07;13.10;;;3.30;;
75651;SDS011;64248;43.602;39.724;2022-12-11T07:48:36;8.68;;;2.60;;
75651;SDS011;64248;43.602;39.724;2022-12-11T07:51:46;8.32;;;2.88;;
75651;SDS011;64248;43.602;39.724;2022-12-11T07:53:58;19.15;;;3.58;;
75651;SDS011;64248;43.602;39.724;2022-12-11T07:56:26;8.18;;;2.83;;
75651;SDS011;64248;43.602;39.724;2022-12-11T07:58:53;12.98;;;4.20;;
75651;SDS011;64248;43.602;39.724;2022-12-11T08:01:24;11.40;;;3.88;;
75651;SDS011;64248;43.602;39.724;2022-12-11T08:03:51;19.52;;;9.20;;
75651;SDS011;64248;43.602;39.724;2022-12-11T08:06:18;10.93;;;3.78;;
75651;SDS011;64248;43.602;39.724;2022-12-11T08:08:45;12.90;;;4.32;;
75651;SDS011;64248;43.602;39.724;2022-12-11T08:11:12;12.05;;;3.50;;
75651;SDS011;64248;43.602;39.724;2022-12-11T08:13:39;9.80;;;3.13;;
75651;SDS011;64248;43.602;39.724;2022-12-11T08:16:07;11.80;;;3.35;;
75651;SDS011;64248;43.602;39.724;2022-12-11T08:18:35;7.63;;;3.30;;
75651;SDS011;64248;43.602;39.724;2022-12-11T08:21:05;11.82;;;4.70;;
75651;SDS011;64248;43.602;39.724;2022-12-11T08:23:32;4.93;;;2.58;;
75651;SDS011;64248;43.602;39.724;2022-12-11T08:26:00;5.80;;;2.55;;
75651;SDS011;64248;43.602;39.724;2022-12-11T08:28:28;5.93;;;2.35;;
75651;SDS011;64248;43.602;39.724;2022-12-11T08:30:55;5.93;;;1.85;;
75651;SDS011;64248;43.602;39.724;2022-12-11T08:33:20;4.10;;;1.60;;
75651;SDS011;64248;43.602;39.724;2022-12-11T08:35:46;7.57;;;2.15;;
75651;SDS011;64248;43.602;39.724;2022-12-11T08:38:12;5.60;;;2.45;;
75651;SDS011;64248;43.602;39.724;2022-12-11T08:40:38;3.78;;;1.67;;
75651;SDS011;64248;43.602;39.724;2022-12-11T08:43:04;4.85;;;2.08;;
75651;SDS011;64248;43.602;39.724;2022-12-11T08:45:31;5.85;;;1.90;;
75651;SDS011;64248;43.602;39.724;2022-12-11T08:47:59;9.20;;;1.95;;
75651;SDS011;64248;43.602;39.724;2022-12-11T08:50:25;6.82;;;1.77;;
75651;SDS011;64248;43.602;39.724;2022-12-11T08:52:51;3.67;;;1.77;;
75651;SDS011;64248;43.602;39.724;2022-12-11T08:55:18;3.80;;;1.83;;
75651;SDS011;64248;43.602;39.724;2022-12-11T08:57:44;4.35;;;1.83;;
75651;SDS011;64248;43.602;39.724;2022-12-11T09:00:11;5.90;;;2.88;;
75651;SDS011;64248;43.602;39.724;2022-12-11T09:02:38;5.65;;;2.17;;
75651;SDS011;64248;43.602;39.724;2022-12-11T09:05:04;4.05;;;2.15;;
75651;SDS011;64248;43.602;39.724;2022-12-11T09:07:33;4.55;;;2.08;;
75651;SDS011;64248;43.602;39.724;2022-12-11T09:10:01;5.32;;;2.08;;
75651;SDS011;64248;43.602;39.724;2022-12-11T09:12:28;6.28;;;2.35;;
75651;SDS011;64248;43.602;39.724;2022-12-11T09:14:54;4.70;;;1.73;;
75651;SDS011;64248;43.602;39.724;2022-12-11T09:17:20;4.30;;;1.90;;
75651;SDS011;64248;43.602;39.724;2022-12-11T09:19:46;4.22;;;2.22;;
75651;SDS011;64248;43.602;39.724;2022-12-11T09:22:12;5.68;;;1.85;;
75651;SDS011;64248;43.602;39.724;2022-12-11T09:24:38;5.15;;;2.03;;
75651;SDS011;64248;43.602;39.724;2022-12-11T09:27:04;5.90;;;2.03;;
75651;SDS011;64248;43.602;39.724;2022-12-11T09:29:31;4.57;;;1.88;;
75651;SDS011;64248;43.602;39.724;2022-12-11T09:31:57;6.00;;;1.90;;
75651;SDS011;64248;43.602;39.724;2022-12-11T09:34:23;4.97;;;2.25;;
75651;SDS011;64248;43.602;39.724;2022-12-11T09:36:49;4.75;;;2.00;;
75651;SDS011;64248;43.602;39.724;2022-12-11T09:39:15;4.57;;;2.60;;
75651;SDS011;64248;43.602;39.724;2022-12-11T09:44:22;4.25;;;2.05;;
75651;SDS011;64248;43.602;39.724;2022-12-11T09:46:55;6.20;;;2.03;;
75651;SDS011;64248;43.602;39.724;2022-12-11T09:49:26;4.15;;;2.35;;
75651;SDS011;64248;43.602;39.724;2022-12-11T09:51:59;6.85;;;2.08;;
75651;SDS011;64248;43.602;39.724;2022-12-11T09:54:26;3.85;;;2.15;;
75651;SDS011;64248;43.602;39.724;2022-12-11T09:56:58;6.60;;;1.95;;
75651;SDS011;64248;43.602;39.724;2022-12-11T09:59:40;3.58;;;1.90;;
75651;SDS011;64248;43.602;39.724;2022-12-11T10:02:53;4.93;;;2.30;;
75651;SDS011;64248;43.602;39.724;2022-12-11T10:05:45;6.25;;;1.92;;
75651;SDS011;64248;43.602;39.724;2022-12-11T10:08:22;5.25;;;2.38;;
75651;SDS011;64248;43.602;39.724;2022-12-11T10:11:04;5.05;;;2.20;;
75651;SDS011;64248;43.602;39.724;2022-12-11T10:16:39;5.07;;;2.10;;
75651;SDS011;64248;43.602;39.724;2022-12-11T10:19:16;5.78;;;2.25;;
75651;SDS011;64248;43.602;39.724;2022-12-11T10:21:46;6.10;;;1.88;;
75651;SDS011;64248;43.602;39.724;2022-12-11T10:24:18;5.93;;;2.30;;
75651;SDS011;64248;43.602;39.724;2022-12-11T10:26:51;5.75;;;2.83;;
75651;SDS011;64248;43.602;39.724;2022-12-11T10:29:22;3.58;;;1.90;;
75651;SDS011;64248;43.602;39.724;2022-12-11T10:31:57;4.45;;;2.47;;
75651;SDS011;64248;43.602;39.724;2022-12-11T10:34:33;6.80;;;3.03;;
75651;SDS011;64248;43.602;39.724;2022-12-11T10:37:02;5.82;;;2.60;;
75651;SDS011;64248;43.602;39.724;2022-12-11T10:39:28;4.65;;;2.30;;
75651;SDS011;64248;43.602;39.724;2022-12-11T10:41:54;5.63;;;2.92;;
75651;SDS011;64248;43.602;39.724;2022-12-11T10:44:22;6.35;;;2.83;;
75651;SDS011;64248;43.602;39.724;2022-12-11T10:47:11;6.10;;;2.60;;
75651;SDS011;64248;43.602;39.724;2022-12-11T10:49:49;5.43;;;2.90;;
75651;SDS011;64248;43.602;39.724;2022-12-11T10:52:22;4.70;;;2.08;;
75651;SDS011;64248;43.602;39.724;2022-12-11T10:55:16;3.30;;;2.35;;
75651;SDS011;64248;43.602;39.724;2022-12-11T10:57:45;12.77;;;2.63;;
75651;SDS011;64248;43.602;39.724;2022-12-11T11:00:30;6.20;;;2.20;;
75651;SDS011;64248;43.602;39.724;2022-12-11T11:03:22;4.63;;;2.22;;
75651;SDS011;64248;43.602;39.724;2022-12-11T11:06:00;5.10;;;2.28;;
75651;SDS011;64248;43.602;39.724;2022-12-11T11:08:46;5.88;;;2.10;;
75651;SDS011;64248;43.602;39.724;2022-12-11T11:13:47;5.05;;;2.33;;
75651;SDS011;64248;43.602;39.724;2022-12-11T11:16:14;5.60;;;2.28;;
75651;SDS011;64248;43.602;39.724;2022-12-11T11:18:48;6.50;;;2.60;;
75651;SDS011;64248;43.602;39.724;2022-12-11T11:21:18;4.38;;;2.03;;
75651;SDS011;64248;43.602;39.724;2022-12-11T11:23:45;7.07;;;2.35;;
75651;SDS011;64248;43.602;39.724;2022-12-11T11:26:11;7.20;;;2.88;;
75651;SDS011;64248;43.602;39.724;2022-12-11T11:28:39;6.03;;;2.05;;
75651;SDS011;64248;43.602;39.724;2022-12-11T11:31:11;5.13;;;2.85;;
75651;SDS011;64248;43.602;39.724;2022-12-11T11:33:48;5.93;;;2.65;;
75651;SDS011;64248;43.602;39.724;2022-12-11T11:36:30;7.53;;;2.45;;
75651;SDS011;64248;43.602;39.724;2022-12-11T11:44:39;3.70;;;1.60;;
75651;SDS011;64248;43.602;39.724;2022-12-11T11:47:33;4.90;;;2.50;;
75651;SDS011;64248;43.602;39.724;2022-12-11T11:50:16;4.68;;;1.70;;
75651;SDS011;64248;43.602;39.724;2022-12-11T11:52:50;5.22;;;2.55;;
75651;SDS011;64248;43.602;39.724;2022-12-11T11:58:20;4.10;;;2.20;;
75651;SDS011;64248;43.602;39.724;2022-12-11T12:01:14;5.68;;;2.35;;
75651;SDS011;64248;43.602;39.724;2022-12-11T12:03:42;5.20;;;1.92;;
75651;SDS011;64248;43.602;39.724;2022-12-11T12:06:15;5.28;;;1.95;;
75651;SDS011;64248;43.602;39.724;2022-12-11T12:08:51;8.10;;;2.17;;
75651;SDS011;64248;43.602;39.724;2022-12-11T12:11:39;6.82;;;2.78;;
75651;SDS011;64248;43.602;39.724;2022-12-11T12:22:10;6.45;;;2.95;;
75651;SDS011;64248;43.602;39.724;2022-12-11T12:25:41;5.75;;;2.88;;
75651;SDS011;64248;43.602;39.724;2022-12-11T12:39:00;10.45;;;3.28;;
75651;SDS011;64248;43.602;39.724;2022-12-11T12:42:01;7.60;;;2.92;;
75651;SDS011;64248;43.602;39.724;2022-12-11T12:44:36;6.30;;;2.80;;
75651;SDS011;64248;43.602;39.724;2022-12-11T12:47:12;6.10;;;3.20;;
75651;SDS011;64248;43.602;39.724;2022-12-11T12:49:43;11.45;;;2.80;;
75651;SDS011;64248;43.602;39.724;2022-12-11T12:52:15;6.95;;;2.85;;
75651;SDS011;64248;43.602;39.724;2022-12-11T12:54:46;7.80;;;2.28;;
75651;SDS011;64248;43.602;39.724;2022-12-11T12:57:34;9.20;;;3.08;;
75651;SDS011;64248;43.602;39.724;2022-12-11T13:00:03;6.22;;;2.63;;
75651;SDS011;64248;43.602;39.724;2022-12-11T13:02:30;8.20;;;3.45;;
75651;SDS011;64248;43.602;39.724;2022-12-11T13:04:58;8.65;;;4.57;;
75651;SDS011;64248;43.602;39.724;2022-12-11T13:07:30;7.93;;;4.32;;
75651;SDS011;64248;43.602;39.724;2022-12-11T13:12:45;6.93;;;3.35;;
75651;SDS011;64248;43.602;39.724;2022-12-11T13:15:28;8.63;;;3.97;;
75651;SDS011;64248;43.602;39.724;2022-12-11T13:18:32;12.60;;;4.40;;
75651;SDS011;64248;43.602;39.724;2022-12-11T13:21:00;9.70;;;5.68;;
75651;SDS011;64248;43.602;39.724;2022-12-11T13:23:31;12.82;;;5.85;;
75651;SDS011;64248;43.602;39.724;2022-12-11T13:26:02;10.80;;;5.55;;
75651;SDS011;64248;43.602;39.724;2022-12-11T13:33:42;10.52;;;4.97;;
75651;SDS011;64248;43.602;39.724;2022-12-11T13:38:38;9.93;;;4.05;;
75651;SDS011;64248;43.602;39.724;2022-12-11T13:41:10;10.13;;;5.25;;
75651;SDS011;64248;43.602;39.724;2022-12-11T13:43:37;22.75;;;4.80;;
75651;SDS011;64248;43.602;39.724;2022-12-11T13:46:07;10.45;;;4.93;;
75651;SDS011;64248;43.602;39.724;2022-12-11T13:51:49;17.63;;;6.43;;
75651;SDS011;64248;43.602;39.724;2022-12-11T13:54:17;18.48;;;6.15;;
75651;SDS011;64248;43.602;39.724;2022-12-11T13:57:03;21.02;;;8.10;;
75651;SDS011;64248;43.602;39.724;2022-12-11T13:59:46;20.83;;;8.57;;
75651;SDS011;64248;43.602;39.724;2022-12-11T14:02:22;14.75;;;7.85;;
75651;SDS011;64248;43.602;39.724;2022-12-11T14:05:07;22.60;;;10.05;;
75651;SDS011;64248;43.602;39.724;2022-12-11T14:07:36;27.15;;;9.60;;
75651;SDS011;64248;43.602;39.724;2022-12-11T14:10:08;26.45;;;10.85;;
75651;SDS011;64248;43.602;39.724;2022-12-11T14:12:38;29.30;;;12.48;;
75651;SDS011;64248;43.602;39.724;2022-12-11T14:15:13;25.02;;;11.40;;
75651;SDS011;64248;43.602;39.724;2022-12-11T14:17:40;23.45;;;12.05;;
75651;SDS011;64248;43.602;39.724;2022-12-11T14:20:15;34.40;;;15.00;;
75651;SDS011;64248;43.602;39.724;2022-12-11T14:22:50;35.35;;;14.52;;
75651;SDS011;64248;43.602;39.724;2022-12-11T14:25:23;37.53;;;15.85;;
75651;SDS011;64248;43.602;39.724;2022-12-11T14:27:54;34.25;;;14.65;;
75651;SDS011;64248;43.602;39.724;2022-12-11T14:30:22;32.22;;;15.25;;
75651;SDS011;64248;43.602;39.724;2022-12-11T14:32:57;36.40;;;15.50;;
75651;SDS011;64248;43.602;39.724;2022-12-11T14:35:26;38.65;;;15.18;;
75651;SDS011;64248;43.602;39.724;2022-12-11T14:37:54;35.97;;;15.60;;
75651;SDS011;64248;43.602;39.724;2022-12-11T14:40:30;29.45;;;13.70;;
75651;SDS011;64248;43.602;39.724;2022-12-11T14:43:06;36.70;;;17.73;;
75651;SDS011;64248;43.602;39.724;2022-12-11T14:45:37;35.25;;;15.52;;
75651;SDS011;64248;43.602;39.724;2022-12-11T14:48:10;35.67;;;16.65;;
75651;SDS011;64248;43.602;39.724;2022-12-11T14:50:49;32.85;;;14.70;;
75651;SDS011;64248;43.602;39.724;2022-12-11T14:53:20;34.10;;;13.73;;
75651;SDS011;64248;43.602;39.724;2022-12-11T14:55:50;31.65;;;15.00;;
75651;SDS011;64248;43.602;39.724;2022-12-11T14:58:20;29.73;;;14.38;;
75651;SDS011;64248;43.602;39.724;2022-12-11T15:01:04;29.38;;;13.13;;
75651;SDS011;64248;43.602;39.724;2022-12-11T15:03:33;33.10;;;12.57;;
75651;SDS011;64248;43.602;39.724;2022-12-11T15:06:01;29.75;;;13.75;;
75651;SDS011;64248;43.602;39.724;2022-12-11T15:08:45;28.95;;;12.30;;
75651;SDS011;64248;43.602;39.724;2022-12-11T15:11:12;26.92;;;13.18;;
75651;SDS011;64248;43.602;39.724;2022-12-11T15:13:56;24.67;;;12.68;;
75651;SDS011;64248;43.602;39.724;2022-12-11T15:16:25;20.95;;;11.27;;
75651;SDS011;64248;43.602;39.724;2022-12-11T15:18:54;23.80;;;11.40;;
75651;SDS011;64248;43.602;39.724;2022-12-11T15:21:30;28.60;;;11.65;;
75651;SDS011;64248;43.602;39.724;2022-12-11T15:23:59;25.17;;;10.90;;
75651;SDS011;64248;43.602;39.724;2022-12-11T15:26:32;22.35;;;11.60;;
75651;SDS011;64248;43.602;39.724;2022-12-11T15:32:25;31.48;;;12.30;;
75651;SDS011;64248;43.602;39.724;2022-12-11T15:34:47;24.10;;;10.73;;
75651;SDS011;64248;43.602;39.724;2022-12-11T15:39:53;25.90;;;11.30;;
75651;SDS011;64248;43.602;39.724;2022-12-11T15:42:22;22.30;;;11.63;;
75651;SDS011;64248;43.602;39.724;2022-12-11T15:45:05;20.92;;;9.98;;
75651;SDS011;64248;43.602;39.724;2022-12-11T15:47:33;23.80;;;10.77;;
75651;SDS011;64248;43.602;39.724;2022-12-11T15:50:00;21.55;;;10.70;;
75651;SDS011;64248;43.602;39.724;2022-12-11T15:52:39;21.52;;;10.40;;
75651;SDS011;64248;43.602;39.724;2022-12-11T15:55:05;19.63;;;9.85;;
75651;SDS011;64248;43.602;39.724;2022-12-11T15:57:31;29.52;;;11.85;;
75651;SDS011;64248;43.602;39.724;2022-12-11T15:59:58;22.60;;;9.23;;
75651;SDS011;64248;43.602;39.724;2022-12-11T16:02:24;22.20;;;10.73;;
75651;SDS011;64248;43.602;39.724;2022-12-11T16:04:54;18.30;;;9.70;;